Time;durP1;ratioP1;P1;durP2;ratioP2;P2;SDS_P1;SDS_P2;PMS_P1;PMS_P2;Temp;Humidity;BMP_temperature;BMP_pressure;BME280_temperature;BME280_humidity;BME280_pressure;Samples;Min_cycle;Max_cycle;Signal;HPM_P1;HPM_P2
2023/07/31 00:01:15;;;;;;;5.10;2.17;;;17.30;68.90;;;;;;5054043;28;20254;-73
2023/07/31 00:03:40;;;;;;;5.40;2.33;;;17.30;69.20;;;;;;5053360;28;20655;-74
2023/07/31 00:06:06;;;;;;;5.60;2.73;;;17.20;69.10;;;;;;5067911;28;20187;-75
2023/07/31 00:08:32;;;;;;;3.40;2.50;;;17.20;69.20;;;;;;5070058;28;20654;-74
2023/07/31 00:10:57;;;;;;;8.57;2.50;;;17.20;69.40;;;;;;5052232;28;20309;-74
2023/07/31 00:13:23;;;;;;;3.43;2.40;;;17.10;69.40;;;;;;5063898;28;20179;-74
2023/07/31 00:15:48;;;;;;;2.97;2.13;;;17.00;69.50;;;;;;5059341;28;21021;-75
2023/07/31 00:18:14;;;;;;;4.60;2.60;;;16.90;69.70;;;;;;5061541;28;20457;-74
2023/07/31 00:20:40;;;;;;;6.70;2.80;;;16.90;69.90;;;;;;5059647;28;20223;-74
2023/07/31 00:23:06;;;;;;;7.57;2.83;;;16.90;69.90;;;;;;5063054;28;20274;-74
2023/07/31 00:25:31;;;;;;;4.40;2.80;;;16.80;69.90;;;;;;5066511;28;20427;-75
2023/07/31 00:27:57;;;;;;;6.40;3.07;;;16.80;70.10;;;;;;5068514;28;20282;-74
2023/07/31 00:30:25;;;;;;;5.80;3.10;;;16.80;69.90;;;;;;5058193;28;20291;-74
2023/07/31 00:32:50;;;;;;;5.27;2.57;;;16.70;70.20;;;;;;5060404;28;20191;-74
2023/07/31 00:35:16;;;;;;;8.43;2.37;;;16.70;70.10;;;;;;5066692;28;20433;-74
2023/07/31 00:37:42;;;;;;;5.00;2.63;;;16.70;70.20;;;;;;5058025;28;20714;-75
2023/07/31 00:40:08;;;;;;;10.67;3.40;;;16.70;70.20;;;;;;5059885;28;22061;-75
2023/07/31 00:42:34;;;;;;;6.10;2.70;;;16.70;70.40;;;;;;5062966;28;20238;-74
2023/07/31 00:44:59;;;;;;;3.30;2.40;;;16.60;70.50;;;;;;5064802;28;20946;-74
2023/07/31 00:47:25;;;;;;;8.10;2.53;;;16.60;70.50;;;;;;5068149;28;20449;-74
2023/07/31 00:49:51;;;;;;;8.20;2.70;;;16.60;70.70;;;;;;5064756;28;20215;-75
2023/07/31 00:52:18;;;;;;;4.07;2.63;;;16.60;70.70;;;;;;5055234;28;20245;-73
2023/07/31 00:54:44;;;;;;;7.47;2.90;;;16.50;70.70;;;;;;5063009;28;20505;-74
2023/07/31 00:57:10;;;;;;;6.50;3.10;;;16.60;70.50;;;;;;5065507;28;20556;-73
2023/07/31 00:59:35;;;;;;;4.07;2.90;;;16.60;70.50;;;;;;5060554;28;20211;-73
2023/07/31 01:02:02;;;;;;;6.00;2.60;;;16.50;70.70;;;;;;5051375;28;20207;-72
2023/07/31 01:04:28;;;;;;;5.23;2.40;;;16.50;70.80;;;;;;5060917;28;20183;-73
2023/07/31 01:06:56;;;;;;;4.73;2.77;;;16.50;70.80;;;;;;5058926;28;20433;-72
2023/07/31 01:09:43;;;;;;;7.27;3.07;;;16.60;70.50;;;;;;5060944;28;20196;-72
2023/07/31 01:12:14;;;;;;;10.00;2.73;;;16.50;70.70;;;;;;5046327;28;20534;-72
2023/07/31 01:14:40;;;;;;;5.17;2.30;;;16.60;70.70;;;;;;5058343;28;20418;-72
2023/07/31 01:17:05;;;;;;;9.30;2.70;;;16.60;70.40;;;;;;5055185;28;20461;-72
2023/07/31 01:19:31;;;;;;;5.77;2.80;;;16.60;70.20;;;;;;5066483;28;20208;-72
2023/07/31 01:22:31;;;;;;;4.47;2.70;;;16.60;70.40;;;;;;5051047;28;20202;-73
2023/07/31 01:25:09;;;;;;;3.80;2.97;;;16.50;70.50;;;;;;5055117;28;20180;-73
2023/07/31 01:27:44;;;;;;;4.13;2.53;;;16.40;70.80;;;;;;5051889;28;20452;-74
2023/07/31 01:30:16;;;;;;;7.17;3.10;;;16.40;70.80;;;;;;5060587;28;20477;-74
2023/07/31 01:32:43;;;;;;;5.47;3.00;;;16.40;71.00;;;;;;5056973;28;20419;-73
2023/07/31 01:35:09;;;;;;;6.10;2.50;;;16.40;70.80;;;;;;5054113;28;20521;-75
2023/07/31 01:37:35;;;;;;;5.70;3.00;;;16.40;70.80;;;;;;5061461;28;20573;-74
2023/07/31 01:40:01;;;;;;;4.40;2.70;;;16.50;70.80;;;;;;5056318;28;20426;-74
2023/07/31 01:42:27;;;;;;;3.60;2.33;;;16.50;70.70;;;;;;5052160;28;20236;-75
2023/07/31 01:44:52;;;;;;;3.60;2.60;;;16.40;70.80;;;;;;5062805;28;20197;-73
2023/07/31 01:47:18;;;;;;;8.90;2.73;;;16.40;71.00;;;;;;5068675;28;20290;-74
2023/07/31 01:49:43;;;;;;;8.50;2.93;;;16.40;71.00;;;;;;5058919;28;20249;-74
2023/07/31 01:52:09;;;;;;;10.17;2.70;;;16.40;71.10;;;;;;5048321;28;20238;-74
2023/07/31 01:54:36;;;;;;;5.30;2.60;;;16.40;71.10;;;;;;5057452;28;20249;-74
2023/07/31 01:57:02;;;;;;;6.70;2.57;;;16.30;71.40;;;;;;5060229;28;20176;-73
2023/07/31 01:59:28;;;;;;;5.83;2.73;;;16.20;72.00;;;;;;5057476;28;20997;-73
2023/07/31 02:01:54;;;;;;;3.87;2.57;;;16.10;72.10;;;;;;5059240;28;20689;-73
2023/07/31 02:04:20;;;;;;;7.10;2.73;;;16.10;72.30;;;;;;5061469;28;20474;-74
2023/07/31 02:06:45;;;;;;;5.77;2.73;;;16.10;72.30;;;;;;5069974;28;20658;-73
2023/07/31 02:09:11;;;;;;;3.90;2.43;;;16.10;72.30;;;;;;5061177;28;20189;-74
2023/07/31 02:11:36;;;;;;;5.70;2.63;;;16.10;72.30;;;;;;5056997;28;20556;-74
2023/07/31 02:14:02;;;;;;;4.43;2.80;;;16.10;72.30;;;;;;5059109;28;20202;-74
2023/07/31 02:16:28;;;;;;;5.40;2.90;;;16.10;72.00;;;;;;5054813;28;20184;-73
2023/07/31 02:18:53;;;;;;;5.20;2.70;;;16.10;72.00;;;;;;5057596;28;20227;-74
2023/07/31 02:21:19;;;;;;;5.97;2.80;;;16.20;71.80;;;;;;5059218;28;20233;-74
2023/07/31 02:23:44;;;;;;;4.50;3.00;;;16.30;71.30;;;;;;5059691;28;20649;-74
2023/07/31 02:26:10;;;;;;;4.67;2.50;;;16.30;71.10;;;;;;5067709;28;20190;-74
2023/07/31 02:28:36;;;;;;;14.13;3.37;;;16.30;71.10;;;;;;5064293;28;20186;-73
2023/07/31 02:31:01;;;;;;;4.87;2.57;;;16.30;71.10;;;;;;5049964;28;20208;-73
2023/07/31 02:33:27;;;;;;;6.63;2.80;;;16.40;71.00;;;;;;5037969;28;20190;-74
2023/07/31 02:35:52;;;;;;;5.83;2.23;;;16.40;70.40;;;;;;5060754;28;20283;-73
2023/07/31 02:38:18;;;;;;;9.83;2.40;;;16.50;70.40;;;;;;5066368;28;20248;-74
2023/07/31 02:40:44;;;;;;;4.03;2.20;;;16.50;70.40;;;;;;5047251;28;20212;-73
2023/07/31 02:43:10;;;;;;;5.70;2.60;;;16.50;70.40;;;;;;5060114;28;20207;-73
2023/07/31 02:45:36;;;;;;;5.10;2.30;;;16.50;69.70;;;;;;5056417;28;20422;-74
2023/07/31 02:48:01;;;;;;;8.07;2.73;;;16.70;69.20;;;;;;5066890;28;20274;-72
2023/07/31 02:50:30;;;;;;;3.50;2.33;;;16.70;69.10;;;;;;5061429;28;20493;-73
2023/07/31 02:52:56;;;;;;;5.90;2.63;;;16.80;68.60;;;;;;5056906;28;20203;-73
2023/07/31 02:55:21;;;;;;;4.40;2.57;;;16.80;69.10;;;;;;5066378;28;20516;-73
2023/07/31 02:57:47;;;;;;;3.67;2.37;;;16.90;68.60;;;;;;5062519;28;20625;-71
2023/07/31 03:00:13;;;;;;;5.67;2.90;;;16.90;68.60;;;;;;5060972;28;20220;-72
2023/07/31 03:02:38;;;;;;;4.40;2.50;;;16.90;68.60;;;;;;5057834;28;20270;-72
2023/07/31 03:05:04;;;;;;;5.63;2.90;;;16.90;68.20;;;;;;5065708;28;20195;-72
2023/07/31 03:07:30;;;;;;;4.60;2.63;;;16.90;68.60;;;;;;5064034;28;20294;-73
2023/07/31 03:09:56;;;;;;;5.53;2.90;;;16.80;68.90;;;;;;5062880;28;20193;-72
2023/07/31 03:12:22;;;;;;;4.87;3.03;;;16.80;69.20;;;;;;5056842;28;20196;-73
2023/07/31 03:14:47;;;;;;;6.43;2.67;;;16.80;69.40;;;;;;5056536;28;20490;-73
2023/07/31 03:17:13;;;;;;;3.87;2.50;;;16.70;69.40;;;;;;5058051;28;20808;-73
2023/07/31 03:19:38;;;;;;;5.10;2.47;;;16.70;69.50;;;;;;5058330;28;20277;-73
2023/07/31 03:22:04;;;;;;;4.73;3.00;;;16.60;69.70;;;;;;5056618;28;20709;-73
2023/07/31 03:24:30;;;;;;;6.93;2.43;;;16.60;69.90;;;;;;5053415;28;20239;-74
2023/07/31 03:26:56;;;;;;;3.90;2.67;;;16.60;70.10;;;;;;5066728;28;20437;-74
2023/07/31 03:29:21;;;;;;;7.43;2.77;;;16.50;70.20;;;;;;5070590;28;20195;-74
2023/07/31 03:31:47;;;;;;;4.37;3.03;;;16.60;69.90;;;;;;5058501;28;20207;-74
2023/07/31 03:34:12;;;;;;;5.80;2.43;;;16.50;70.10;;;;;;5061541;28;20601;-74
2023/07/31 03:36:38;;;;;;;6.10;2.63;;;16.40;70.40;;;;;;5065246;28;20199;-73
2023/07/31 03:39:04;;;;;;;5.40;2.77;;;16.20;71.30;;;;;;5064044;28;20221;-71
2023/07/31 03:41:29;;;;;;;6.50;3.50;;;16.00;71.70;;;;;;5047197;28;20254;-72
2023/07/31 03:43:55;;;;;;;4.90;2.30;;;15.90;72.10;;;;;;5061690;28;20302;-74
2023/07/31 03:46:22;;;;;;;7.53;2.90;;;15.90;72.10;;;;;;5044659;28;20654;-74
2023/07/31 03:48:48;;;;;;;5.27;2.60;;;15.90;72.00;;;;;;5066417;28;20438;-74
2023/07/31 03:51:14;;;;;;;4.33;2.90;;;15.90;71.80;;;;;;5050383;28;20461;-74
2023/07/31 03:53:39;;;;;;;8.10;2.57;;;16.00;71.70;;;;;;5057298;28;20426;-74
2023/07/31 03:56:05;;;;;;;3.00;2.57;;;16.00;71.60;;;;;;5063205;28;20193;-74
2023/07/31 03:58:31;;;;;;;5.30;2.80;;;16.00;71.60;;;;;;5063029;28;20223;-73
2023/07/31 04:00:56;;;;;;;3.50;2.80;;;16.00;71.60;;;;;;5048546;28;20208;-74
2023/07/31 04:03:22;;;;;;;6.70;3.20;;;16.00;71.60;;;;;;5058802;28;20202;-74
2023/07/31 04:05:47;;;;;;;4.63;2.77;;;16.00;71.30;;;;;;5058995;28;20190;-74
2023/07/31 04:08:13;;;;;;;4.33;2.40;;;16.10;71.10;;;;;;5070272;28;20201;-73
2023/07/31 04:10:38;;;;;;;6.10;2.90;;;16.20;71.00;;;;;;5049757;28;20233;-74
2023/07/31 04:13:04;;;;;;;5.90;2.63;;;16.30;70.70;;;;;;5058365;28;20261;-75
2023/07/31 04:15:30;;;;;;;4.03;2.40;;;16.40;69.70;;;;;;5065226;28;20811;-74
2023/07/31 04:17:55;;;;;;;3.70;1.90;;;16.50;69.20;;;;;;5052075;28;20231;-74
2023/07/31 04:20:21;;;;;;;8.77;2.77;;;16.60;69.20;;;;;;5040384;28;20199;-74
2023/07/31 04:22:46;;;;;;;7.73;2.87;;;16.70;68.90;;;;;;5065688;28;20196;-74
2023/07/31 04:25:12;;;;;;;4.80;2.73;;;16.80;68.60;;;;;;5060223;28;20190;-74
2023/07/31 04:27:38;;;;;;;6.00;3.17;;;16.80;68.60;;;;;;5070999;28;20198;-74
2023/07/31 04:30:05;;;;;;;4.23;2.50;;;16.80;68.90;;;;;;5066727;28;20214;-73
2023/07/31 04:32:30;;;;;;;4.20;2.57;;;16.80;68.90;;;;;;5061737;28;20427;-74
2023/07/31 04:34:56;;;;;;;3.83;2.60;;;16.90;68.90;;;;;;5057648;28;20488;-74
2023/07/31 04:37:22;;;;;;;5.27;2.70;;;16.90;68.60;;;;;;5069354;28;20220;-74
2023/07/31 04:39:47;;;;;;;8.50;2.83;;;16.90;68.90;;;;;;5061488;28;20726;-73
2023/07/31 04:42:13;;;;;;;6.60;2.83;;;16.90;68.90;;;;;;5055098;28;20179;-73
2023/07/31 04:44:38;;;;;;;7.17;2.80;;;16.90;68.90;;;;;;5064296;28;20198;-74
2023/07/31 04:47:04;;;;;;;6.03;3.27;;;17.00;68.60;;;;;;5056182;28;20708;-73
2023/07/31 04:49:30;;;;;;;5.90;2.90;;;17.00;68.60;;;;;;5067193;28;20657;-74
2023/07/31 04:51:55;;;;;;;4.83;2.57;;;17.10;68.60;;;;;;5049267;28;20308;-75
2023/07/31 04:54:21;;;;;;;4.47;2.70;;;17.10;68.30;;;;;;5058107;28;20193;-74
2023/07/31 04:56:47;;;;;;;3.90;2.30;;;17.20;68.00;;;;;;5059543;28;20193;-74
2023/07/31 04:59:13;;;;;;;7.90;2.70;;;17.30;67.70;;;;;;5062805;28;20224;-73
2023/07/31 05:01:38;;;;;;;4.33;2.53;;;17.50;67.00;;;;;;5046130;28;20466;-74
2023/07/31 05:04:04;;;;;;;5.73;2.53;;;17.50;66.90;;;;;;5058087;28;20199;-74
2023/07/31 05:06:29;;;;;;;6.47;2.60;;;17.60;66.90;;;;;;5071141;28;20450;-74
2023/07/31 05:08:55;;;;;;;6.00;3.40;;;17.60;66.90;;;;;;5067110;28;20200;-73
2023/07/31 05:11:21;;;;;;;4.13;2.27;;;17.60;66.90;;;;;;5052705;28;20291;-73
2023/07/31 05:13:46;;;;;;;3.67;2.43;;;17.60;67.00;;;;;;5060383;28;20292;-73
2023/07/31 05:16:12;;;;;;;4.60;2.77;;;17.60;67.20;;;;;;5061512;28;20172;-73
2023/07/31 05:18:37;;;;;;;4.47;2.50;;;17.60;67.20;;;;;;5053437;28;20229;-73
2023/07/31 05:21:03;;;;;;;7.57;3.00;;;17.60;66.90;;;;;;5057487;28;20271;-77
2023/07/31 05:23:31;;;;;;;9.93;3.60;;;17.70;66.60;;;;;;5062573;28;20172;-75
2023/07/31 05:26:05;;;;;;;4.93;2.50;;;17.70;66.70;;;;;;5065514;28;20195;-77
2023/07/31 05:28:31;;;;;;;3.80;2.30;;;17.80;66.40;;;;;;5055642;28;20921;-77
2023/07/31 05:31:00;;;;;;;4.00;2.53;;;17.70;66.60;;;;;;5053731;28;20524;-76
2023/07/31 05:33:26;;;;;;;4.23;2.47;;;17.80;66.70;;;;;;5063226;28;20187;-77
2023/07/31 05:35:52;;;;;;;7.80;2.70;;;17.80;66.70;;;;;;5064641;28;20425;-76
2023/07/31 05:38:18;;;;;;;3.60;2.07;;;17.70;66.90;;;;;;5064690;28;20266;-75
2023/07/31 05:40:43;;;;;;;5.77;2.43;;;17.70;67.00;;;;;;5057794;28;20212;-75
2023/07/31 05:43:09;;;;;;;4.47;2.57;;;17.70;67.00;;;;;;5059806;28;20295;-75
2023/07/31 05:45:35;;;;;;;3.47;2.30;;;17.80;67.00;;;;;;5064757;28;20196;-76
2023/07/31 05:48:01;;;;;;;6.63;2.90;;;17.80;66.40;;;;;;5068031;28;20215;-76
2023/07/31 05:50:26;;;;;;;6.40;3.30;;;17.90;66.40;;;;;;5061375;28;20832;-76
2023/07/31 05:52:52;;;;;;;7.73;2.50;;;17.90;66.10;;;;;;5043897;28;20201;-76
2023/07/31 05:55:18;;;;;;;5.93;2.50;;;18.00;66.30;;;;;;5067744;28;20197;-76
2023/07/31 05:57:45;;;;;;;9.93;2.90;;;18.10;66.00;;;;;;5069494;28;20217;-74
2023/07/31 06:00:12;;;;;;;10.40;2.57;;;18.20;66.00;;;;;;5058892;28;20577;-75
2023/07/31 06:02:37;;;;;;;4.23;2.30;;;18.20;65.80;;;;;;5059593;28;20438;-74
2023/07/31 06:05:05;;;;;;;3.90;2.10;;;18.20;65.80;;;;;;5062147;28;20426;-75
2023/07/31 06:07:32;;;;;;;5.60;2.63;;;18.30;66.00;;;;;;5065127;28;20802;-76
2023/07/31 06:10:03;;;;;;;6.83;2.67;;;18.30;66.00;;;;;;5063671;28;20427;-75
2023/07/31 06:12:29;;;;;;;4.73;2.40;;;18.40;66.10;;;;;;5058251;28;20496;-75
2023/07/31 06:14:54;;;;;;;6.30;2.57;;;18.50;66.00;;;;;;5062909;28;20560;-74
2023/07/31 06:17:21;;;;;;;5.97;2.40;;;18.50;65.80;;;;;;5053879;28;20207;-75
2023/07/31 06:19:47;;;;;;;6.80;2.47;;;18.50;65.30;;;;;;5061686;28;20208;-75
2023/07/31 06:22:12;;;;;;;5.83;1.97;;;18.50;65.80;;;;;;5052022;28;20449;-74
2023/07/31 06:24:38;;;;;;;4.00;2.20;;;18.70;65.10;;;;;;5065177;28;20189;-74
2023/07/31 06:27:05;;;;;;;3.60;2.10;;;18.70;65.10;;;;;;5069434;28;20190;-76
2023/07/31 06:29:31;;;;;;;5.37;2.50;;;18.70;65.00;;;;;;5038154;28;20565;-75
2023/07/31 06:31:57;;;;;;;4.87;2.80;;;18.80;65.00;;;;;;5046106;28;20479;-76
2023/07/31 06:34:22;;;;;;;5.33;2.60;;;18.90;64.40;;;;;;5060852;28;20197;-75
2023/07/31 06:36:48;;;;;;;6.50;2.63;;;19.00;64.40;;;;;;5061202;28;20213;-75
2023/07/31 06:39:13;;;;;;;5.27;2.57;;;19.10;64.40;;;;;;5059311;28;20599;-74
2023/07/31 06:41:39;;;;;;;7.30;2.77;;;19.10;64.20;;;;;;5054916;28;20355;-75
2023/07/31 06:44:05;;;;;;;6.13;2.83;;;19.20;64.20;;;;;;5069287;28;20199;-74
2023/07/31 06:46:30;;;;;;;6.83;4.10;;;19.20;64.10;;;;;;5068358;28;20190;-75
2023/07/31 06:48:56;;;;;;;8.97;2.90;;;19.20;64.10;;;;;;5073601;28;20190;-75
2023/07/31 06:51:22;;;;;;;3.33;2.23;;;19.20;64.20;;;;;;5055708;28;20207;-75
2023/07/31 06:53:47;;;;;;;6.83;2.53;;;19.20;64.20;;;;;;5065258;28;20182;-75
2023/07/31 06:56:13;;;;;;;4.60;2.30;;;19.20;64.20;;;;;;5069450;28;20205;-75
2023/07/31 06:58:39;;;;;;;7.00;3.00;;;19.30;64.10;;;;;;5057175;28;20240;-75
2023/07/31 07:01:04;;;;;;;6.13;2.67;;;19.40;64.10;;;;;;5054870;28;20211;-75
2023/07/31 07:03:30;;;;;;;7.67;2.47;;;19.50;63.70;;;;;;5052725;28;20428;-75
2023/07/31 07:05:56;;;;;;;5.73;2.60;;;19.60;63.80;;;;;;5061082;28;20185;-76
2023/07/31 07:08:21;;;;;;;3.53;2.10;;;19.70;63.70;;;;;;5060368;28;20281;-75
2023/07/31 07:10:47;;;;;;;5.77;2.80;;;19.70;63.70;;;;;;5055763;28;21089;-75
2023/07/31 07:13:13;;;;;;;3.47;2.30;;;19.70;63.90;;;;;;5061419;28;21029;-76
2023/07/31 07:15:39;;;;;;;6.10;2.37;;;19.60;63.80;;;;;;5062182;28;20283;-74
2023/07/31 07:18:04;;;;;;;6.40;2.40;;;19.60;63.80;;;;;;5057782;28;20223;-75
2023/07/31 07:20:30;;;;;;;4.93;2.70;;;19.70;63.20;;;;;;5059157;28;20330;-75
2023/07/31 07:22:56;;;;;;;8.90;2.67;;;19.80;63.40;;;;;;5061711;28;20241;-75
2023/07/31 07:25:21;;;;;;;5.77;2.83;;;20.00;62.90;;;;;;5060807;28;20601;-76
2023/07/31 07:27:47;;;;;;;7.03;2.90;;;20.10;62.80;;;;;;5068777;28;20271;-75
2023/07/31 07:30:14;;;;;;;4.63;2.33;;;20.10;62.90;;;;;;5060571;28;20324;-75
2023/07/31 07:32:39;;;;;;;7.33;2.70;;;20.20;62.30;;;;;;5058744;28;20188;-75
2023/07/31 07:35:06;;;;;;;5.83;2.90;;;20.30;62.80;;;;;;5069238;28;20458;-75
2023/07/31 07:37:32;;;;;;;6.90;2.87;;;20.40;62.60;;;;;;5070188;28;20266;-75
2023/07/31 07:39:57;;;;;;;4.67;2.50;;;20.50;62.50;;;;;;5064109;28;20418;-75
2023/07/31 07:42:23;;;;;;;4.83;2.60;;;20.30;61.90;;;;;;5055200;28;21059;-76
2023/07/31 07:44:49;;;;;;;5.07;2.50;;;20.20;62.50;;;;;;5068411;28;20262;-75
2023/07/31 07:47:14;;;;;;;3.93;2.30;;;20.30;62.60;;;;;;5074185;28;20194;-75
2023/07/31 07:49:40;;;;;;;7.87;3.03;;;20.30;62.50;;;;;;5060583;28;20185;-76
2023/07/31 07:52:06;;;;;;;5.20;2.90;;;20.30;62.60;;;;;;5056126;28;20220;-76
2023/07/31 07:54:32;;;;;;;11.53;3.53;;;20.30;62.60;;;;;;5068883;28;20186;-73
2023/07/31 07:56:58;;;;;;;6.13;3.23;;;20.30;63.10;;;;;;5072927;28;20193;-74
2023/07/31 07:59:23;;;;;;;6.67;2.70;;;20.30;64.10;;;;;;5077264;28;20251;-75
2023/07/31 08:01:49;;;;;;;6.33;2.93;;;20.40;64.10;;;;;;5059887;28;20208;-74
2023/07/31 08:04:14;;;;;;;7.80;3.00;;;20.30;63.90;;;;;;5076954;28;20204;-74
2023/07/31 08:06:40;;;;;;;7.73;2.37;;;20.40;64.10;;;;;;5073732;28;20195;-74
2023/07/31 08:09:06;;;;;;;7.00;3.03;;;20.50;63.40;;;;;;5073068;28;20189;-74
2023/07/31 08:11:35;;;;;;;6.03;2.60;;;20.70;63.50;;;;;;5056915;28;20568;-76
2023/07/31 08:14:00;;;;;;;4.80;2.80;;;20.70;62.90;;;;;;5063734;28;20226;-74
2023/07/31 08:16:26;;;;;;;7.50;3.40;;;20.70;63.20;;;;;;5043053;28;20443;-76
2023/07/31 08:18:52;;;;;;;4.23;2.60;;;20.60;63.10;;;;;;5065023;28;20225;-75
2023/07/31 08:21:17;;;;;;;5.10;2.50;;;20.60;63.20;;;;;;5056622;28;20206;-75
2023/07/31 08:23:43;;;;;;;8.17;2.60;;;20.60;63.40;;;;;;5063975;28;20192;-76
2023/07/31 08:26:15;;;;;;;3.27;2.47;;;20.50;63.10;;;;;;5052781;28;20553;-76
2023/07/31 08:28:41;;;;;;;10.90;2.87;;;20.60;62.80;;;;;;5065816;28;20192;-76
2023/07/31 08:31:06;;;;;;;4.40;2.40;;;20.50;63.10;;;;;;5059324;28;20462;-75
2023/07/31 08:33:32;;;;;;;10.43;3.20;;;20.60;63.50;;;;;;5064003;28;20264;-74
2023/07/31 08:35:59;;;;;;;5.63;2.80;;;20.80;62.60;;;;;;5069461;28;20196;-76
2023/07/31 08:38:26;;;;;;;4.73;2.43;;;20.80;62.80;;;;;;5058071;28;20569;-74
2023/07/31 08:40:52;;;;;;;4.93;2.87;;;20.90;62.80;;;;;;5065085;28;20564;-74
2023/07/31 08:43:20;;;;;;;6.63;2.50;;;21.10;62.20;;;;;;5059630;28;20456;-75
2023/07/31 08:45:46;;;;;;;4.70;2.57;;;21.10;62.00;;;;;;5059760;28;20666;-76
2023/07/31 08:48:13;;;;;;;9.40;2.90;;;21.20;62.30;;;;;;5064727;28;20430;-75
2023/07/31 08:50:39;;;;;;;6.60;3.20;;;21.20;61.20;;;;;;5049947;28;20465;-77
2023/07/31 08:53:04;;;;;;;4.50;2.40;;;21.20;61.90;;;;;;5055490;28;20510;-75
2023/07/31 08:55:32;;;;;;;8.87;2.90;;;21.30;62.00;;;;;;5059768;28;20703;-76
2023/07/31 08:58:00;;;;;;;7.90;2.90;;;21.30;62.00;;;;;;5065262;28;20221;-74
2023/07/31 09:00:26;;;;;;;4.03;2.50;;;21.50;61.90;;;;;;5057635;28;20473;-75
2023/07/31 09:03:09;;;;;;;6.83;2.53;;;21.50;61.90;;;;;;5064080;28;20434;-75
2023/07/31 09:05:39;;;;;;;5.17;3.00;;;21.80;61.20;;;;;;5058575;28;20436;-75
2023/07/31 09:08:05;;;;;;;3.40;2.50;;;21.80;61.20;;;;;;5059644;28;20424;-76
2023/07/31 09:10:31;;;;;;;5.63;2.90;;;21.80;60.60;;;;;;5051878;28;20470;-75
2023/07/31 09:12:58;;;;;;;7.50;3.03;;;21.80;60.10;;;;;;5054419;28;20186;-75
2023/07/31 09:15:24;;;;;;;5.97;2.80;;;21.90;60.10;;;;;;5068405;28;20209;-76
2023/07/31 09:18:02;;;;;;;6.00;2.80;;;21.80;60.30;;;;;;5058667;28;20482;-77
2023/07/31 09:20:28;;;;;;;4.33;2.40;;;21.60;60.90;;;;;;5053270;28;20904;-76
2023/07/31 09:22:55;;;;;;;6.87;3.20;;;21.70;61.30;;;;;;5060448;28;20433;-77
2023/07/31 09:25:22;;;;;;;5.03;2.80;;;21.70;61.20;;;;;;5059351;28;20197;-74
2023/07/31 09:27:58;;;;;;;8.50;2.70;;;21.80;61.00;;;;;;5048143;28;20509;-75
2023/07/31 09:30:25;;;;;;;6.07;3.33;;;21.70;61.50;;;;;;5055332;28;21043;-75
2023/07/31 09:32:52;;;;;;;5.90;2.80;;;21.70;61.30;;;;;;5057186;28;20429;-75
2023/07/31 09:35:29;;;;;;;6.60;2.90;;;21.80;61.50;;;;;;5063162;28;20879;-75
2023/07/31 09:37:58;;;;;;;7.37;2.70;;;21.80;61.20;;;;;;5066628;28;20509;-75
2023/07/31 09:40:31;;;;;;;5.33;2.83;;;21.50;61.60;;;;;;5056129;28;20860;-75
2023/07/31 09:43:38;;;;;;;3.73;2.70;;;21.30;62.30;;;;;;5060765;28;20454;-76
2023/07/31 09:46:13;;;;;;;4.93;3.33;;;21.40;62.50;;;;;;5056522;28;20431;-75
2023/07/31 09:48:39;;;;;;;7.40;3.37;;;21.40;62.30;;;;;;5060604;28;20423;-75
2023/07/31 09:51:05;;;;;;;6.50;2.90;;;21.50;62.20;;;;;;5052586;28;20526;-75
2023/07/31 09:53:30;;;;;;;5.10;2.50;;;21.50;62.20;;;;;;5061933;28;20744;-76
2023/07/31 09:55:58;;;;;;;6.00;3.20;;;21.60;62.00;;;;;;5065011;28;20198;-75
2023/07/31 09:58:26;;;;;;;5.17;2.80;;;21.60;61.70;;;;;;5061771;28;20254;-76
2023/07/31 10:00:53;;;;;;;7.83;3.23;;;21.70;61.00;;;;;;5051892;28;20485;-75
2023/07/31 10:03:20;;;;;;;7.20;2.67;;;21.70;61.50;;;;;;5061887;28;21315;-75
2023/07/31 10:05:50;;;;;;;6.43;2.70;;;22.00;61.60;;;;;;5066301;28;20481;-76
2023/07/31 10:08:17;;;;;;;7.07;3.20;;;22.20;60.60;;;;;;5067314;28;20548;-76
2023/07/31 10:10:45;;;;;;;5.03;2.50;;;22.20;60.60;;;;;;5053724;28;20503;-75
2023/07/31 10:13:12;;;;;;;8.03;3.47;;;22.30;60.30;;;;;;5046572;28;20433;-75
2023/07/31 10:15:38;;;;;;;11.07;3.20;;;22.70;59.50;;;;;;5061154;28;20431;-77
2023/07/31 10:18:06;;;;;;;5.03;2.67;;;23.00;58.80;;;;;;5060578;28;20569;-76
2023/07/31 10:20:33;;;;;;;6.33;2.67;;;22.90;57.70;;;;;;5052531;28;20822;-76
2023/07/31 10:23:00;;;;;;;6.20;3.13;;;22.70;59.10;;;;;;5061071;28;20474;-76
2023/07/31 10:25:26;;;;;;;5.23;2.50;;;22.60;59.20;;;;;;5066604;28;20433;-76
2023/07/31 10:27:53;;;;;;;7.00;2.80;;;22.60;59.30;;;;;;5068701;28;20924;-76
2023/07/31 10:30:22;;;;;;;8.37;2.70;;;22.80;59.20;;;;;;5058927;28;20474;-76
2023/07/31 10:32:49;;;;;;;3.03;2.23;;;22.80;59.10;;;;;;5058890;28;20430;-76
2023/07/31 10:35:17;;;;;;;6.20;2.60;;;23.00;59.20;;;;;;5062224;28;20438;-75
2023/07/31 10:37:43;;;;;;;7.90;3.50;;;23.10;58.70;;;;;;5066438;28;21018;-76
2023/07/31 10:40:13;;;;;;;6.37;3.17;;;23.20;58.50;;;;;;5060017;28;20465;-75
2023/07/31 10:42:52;;;;;;;4.67;3.00;;;23.20;58.80;;;;;;5066357;28;20437;-75
2023/07/31 10:45:38;;;;;;;5.23;3.13;;;22.90;58.80;;;;;;5065475;28;20520;-76
2023/07/31 10:48:14;;;;;;;5.07;3.13;;;22.70;59.50;;;;;;5058483;28;20441;-76
2023/07/31 10:50:51;;;;;;;7.70;3.40;;;22.70;59.20;;;;;;5063180;28;20486;-75
2023/07/31 10:53:30;;;;;;;5.50;2.83;;;22.80;58.90;;;;;;5059536;28;20788;-75
2023/07/31 10:56:04;;;;;;;8.03;3.20;;;22.80;59.10;;;;;;5055778;28;20430;-77
2023/07/31 10:58:33;;;;;;;8.17;3.00;;;23.00;58.50;;;;;;5057267;28;20549;-76
2023/07/31 11:01:01;;;;;;;5.30;2.60;;;23.20;58.80;;;;;;5046492;28;20474;-76
2023/07/31 11:03:40;;;;;;;6.77;3.20;;;23.50;56.90;;;;;;5056037;28;20432;-75
2023/07/31 11:06:06;;;;;;;6.00;2.83;;;23.30;57.40;;;;;;5064142;28;20434;-76
2023/07/31 11:08:40;;;;;;;5.60;2.60;;;23.50;57.80;;;;;;5061488;28;20432;-75
2023/07/31 11:11:08;;;;;;;9.43;3.50;;;23.60;56.80;;;;;;5049217;28;20212;-76
2023/07/31 11:13:43;;;;;;;5.10;2.53;;;23.10;58.00;;;;;;5055688;28;20427;-76
2023/07/31 11:16:10;;;;;;;7.90;3.10;;;22.90;58.50;;;;;;5071403;28;20480;-76
2023/07/31 11:18:36;;;;;;;6.73;3.23;;;22.90;58.40;;;;;;5074418;28;21075;-76
2023/07/31 11:21:02;;;;;;;6.30;3.50;;;23.10;58.70;;;;;;5064131;28;20483;-75
2023/07/31 11:23:27;;;;;;;6.40;3.10;;;23.20;58.10;;;;;;5063143;28;20436;-76
2023/07/31 11:25:59;;;;;;;7.17;2.97;;;23.10;58.40;;;;;;5063447;28;20685;-76
2023/07/31 11:28:25;;;;;;;5.13;2.63;;;23.00;58.40;;;;;;5069327;28;20223;-75
2023/07/31 11:30:51;;;;;;;5.13;2.67;;;22.90;58.50;;;;;;5056866;28;20467;-75
2023/07/31 11:33:17;;;;;;;5.73;3.10;;;23.00;58.40;;;;;;5061597;28;20181;-75
2023/07/31 11:35:48;;;;;;;8.20;3.40;;;23.10;58.40;;;;;;5074718;28;20459;-76
2023/07/31 11:38:25;;;;;;;6.60;2.80;;;23.10;58.50;;;;;;5076681;28;20234;-76
2023/07/31 11:40:51;;;;;;;6.43;2.90;;;22.90;59.30;;;;;;5059505;28;20498;-76
2023/07/31 11:43:18;;;;;;;6.77;3.50;;;23.00;59.30;;;;;;5059682;28;20454;-75
2023/07/31 11:45:56;;;;;;;8.27;3.20;;;23.10;58.80;;;;;;5066987;28;20535;-75
2023/07/31 11:48:27;;;;;;;9.73;3.67;;;23.30;58.80;;;;;;5065757;28;20953;-78
2023/07/31 11:50:57;;;;;;;5.33;3.00;;;23.30;58.90;;;;;;5053265;28;20455;-77
2023/07/31 11:53:27;;;;;;;10.63;3.10;;;23.30;58.50;;;;;;5063391;28;20456;-75
2023/07/31 11:55:54;;;;;;;6.10;2.83;;;23.30;57.80;;;;;;5076669;28;20415;-77
2023/07/31 11:58:21;;;;;;;6.53;2.70;;;23.30;58.70;;;;;;5066566;28;20480;-75
2023/07/31 12:00:48;;;;;;;9.17;3.90;;;23.30;58.90;;;;;;5054836;28;20464;-76
2023/07/31 12:03:14;;;;;;;11.43;3.30;;;23.40;58.70;;;;;;5061835;28;20444;-77
2023/07/31 12:05:39;;;;;;;8.03;3.33;;;23.40;58.80;;;;;;5065413;28;20428;-76
2023/07/31 12:08:13;;;;;;;6.87;3.13;;;23.40;58.70;;;;;;5057884;28;20992;-75
2023/07/31 12:10:40;;;;;;;6.73;3.00;;;23.50;58.80;;;;;;5052827;28;20703;-77
2023/07/31 12:13:13;;;;;;;7.43;3.27;;;23.70;58.10;;;;;;5052085;28;20428;-76
2023/07/31 12:15:41;;;;;;;5.33;3.07;;;23.60;58.50;;;;;;5056017;28;20448;-76
2023/07/31 12:18:19;;;;;;;4.93;3.10;;;23.50;58.80;;;;;;5058009;28;20528;-76
2023/07/31 12:20:47;;;;;;;7.00;3.50;;;23.40;58.80;;;;;;5056177;28;20469;-76
2023/07/31 12:23:27;;;;;;;6.63;3.30;;;23.40;59.30;;;;;;5058591;28;20470;-76
2023/07/31 12:26:13;;;;;;;7.73;3.10;;;23.50;59.20;;;;;;5062607;28;20462;-76
2023/07/31 12:28:50;;;;;;;5.20;2.70;;;23.50;59.30;;;;;;5056745;28;20426;-75
2023/07/31 12:31:22;;;;;;;11.57;3.47;;;23.30;58.70;;;;;;5052294;28;21004;-75
2023/07/31 12:33:50;;;;;;;9.83;4.30;;;23.10;59.30;;;;;;5059688;28;20427;-75
2023/07/31 12:36:22;;;;;;;8.87;3.03;;;23.10;59.90;;;;;;5060675;28;20444;-75
2023/07/31 12:38:47;;;;;;;7.00;3.43;;;23.10;59.70;;;;;;5061140;28;20480;-77
2023/07/31 12:41:13;;;;;;;6.93;3.37;;;23.10;59.60;;;;;;5050678;28;20467;-75
2023/07/31 12:43:41;;;;;;;4.90;2.70;;;23.00;59.70;;;;;;5060368;28;20292;-75
2023/07/31 12:46:07;;;;;;;10.23;4.40;;;22.90;59.20;;;;;;5062690;28;20437;-76